Time;durP1;ratioP1;P1;durP2;ratioP2;P2;SDS_P1;SDS_P2;PMS_P1;PMS_P2;Temp;Humidity;BMP_temperature;BMP_pressure;BME280_temperature;BME280_humidity;BME280_pressure;Samples;Min_cycle;Max_cycle;Signal;HPM_P1;HPM_P2
2023/06/06 00:01:17;;;;;;;12.18;6.65;;;;;;;;;;4995381;28;20398;-59
2023/06/06 00:03:44;;;;;;;13.25;5.80;;;;;;;;;;5012588;28;20325;-59
2023/06/06 00:06:11;;;;;;;12.77;6.25;;;;;;;;;;5012316;28;20045;-59
2023/06/06 00:08:37;;;;;;;10.93;5.88;;;;;;;;;;4995310;28;20052;-59
2023/06/06 00:11:03;;;;;;;11.55;6.13;;;;;;;;;;5012875;28;20042;-59
2023/06/06 00:13:31;;;;;;;15.23;6.20;;;;;;;;;;5012331;28;20042;-59
2023/06/06 00:15:58;;;;;;;16.17;7.78;;;;;;;;;;5012546;28;20072;-59
2023/06/06 00:18:27;;;;;;;12.25;6.32;;;;;;;;;;4994998;28;20092;-58
2023/06/06 00:20:54;;;;;;;11.30;6.63;;;;;;;;;;4994769;28;20621;-58
2023/06/06 00:23:21;;;;;;;10.18;6.10;;;;;;;;;;5012401;28;20136;-59
2023/06/06 00:25:49;;;;;;;14.98;6.38;;;;;;;;;;5012463;28;20048;-59
2023/06/06 00:28:15;;;;;;;11.45;6.43;;;;;;;;;;5012205;28;20453;-59
2023/06/06 00:30:41;;;;;;;15.15;6.75;;;;;;;;;;5012452;28;20041;-59
2023/06/06 00:33:08;;;;;;;11.73;6.00;;;;;;;;;;5012269;28;20085;-59
2023/06/06 00:35:34;;;;;;;18.80;7.22;;;;;;;;;;5012064;28;20045;-58
2023/06/06 00:38:00;;;;;;;15.35;5.85;;;;;;;;;;5012353;28;20045;-60
2023/06/06 00:40:26;;;;;;;13.82;6.32;;;;;;;;;;5012157;28;20625;-59
2023/06/06 00:42:52;;;;;;;14.52;7.07;;;;;;;;;;5012269;28;20046;-60
2023/06/06 00:45:19;;;;;;;12.32;6.75;;;;;;;;;;4994383;28;20065;-59
2023/06/06 00:47:45;;;;;;;9.93;6.38;;;;;;;;;;4994415;28;20052;-59
2023/06/06 00:50:12;;;;;;;15.43;6.35;;;;;;;;;;5012098;28;20482;-59
2023/06/06 00:52:45;;;;;;;12.88;7.13;;;;;;;;;;5011103;28;20065;-59
2023/06/06 00:55:11;;;;;;;15.07;6.85;;;;;;;;;;4994940;28;20134;-59
2023/06/06 00:57:37;;;;;;;13.02;7.18;;;;;;;;;;5011908;28;20414;-59
2023/06/06 01:00:08;;;;;;;14.35;7.38;;;;;;;;;;5012017;28;20096;-59
2023/06/06 01:02:37;;;;;;;12.05;6.90;;;;;;;;;;4993898;28;20100;-59
2023/06/06 01:05:09;;;;;;;11.90;7.07;;;;;;;;;;4995059;28;20112;-59
2023/06/06 01:07:36;;;;;;;15.10;7.68;;;;;;;;;;5011958;28;20084;-59
2023/06/06 01:10:06;;;;;;;18.42;7.07;;;;;;;;;;5012114;28;20104;-59
2023/06/06 01:12:47;;;;;;;14.63;6.95;;;;;;;;;;5011857;28;20516;-59
2023/06/06 01:15:32;;;;;;;16.38;7.00;;;;;;;;;;5011978;28;20120;-62
2023/06/06 01:18:01;;;;;;;14.00;7.13;;;;;;;;;;4994171;28;20089;-59
2023/06/06 01:20:28;;;;;;;14.52;7.35;;;;;;;;;;5011665;28;20049;-59
2023/06/06 01:22:54;;;;;;;11.35;6.60;;;;;;;;;;5011739;28;20487;-58
2023/06/06 01:25:21;;;;;;;16.15;7.65;;;;;;;;;;5011914;28;20048;-59
2023/06/06 01:27:49;;;;;;;16.05;7.15;;;;;;;;;;5015798;28;20042;-59
2023/06/06 01:30:17;;;;;;;15.05;6.70;;;;;;;;;;5015436;28;20080;-59
2023/06/06 01:32:49;;;;;;;17.33;7.20;;;;;;;;;;4997788;28;20498;-59
2023/06/06 01:35:24;;;;;;;16.30;7.28;;;;;;;;;;5013991;28;20050;-59
2023/06/06 01:37:56;;;;;;;13.20;7.25;;;;;;;;;;5015491;28;20052;-59
2023/06/06 01:40:26;;;;;;;15.77;7.07;;;;;;;;;;4998147;28;20104;-59
2023/06/06 01:42:52;;;;;;;14.95;7.88;;;;;;;;;;5015466;28;20128;-59
2023/06/06 01:45:20;;;;;;;24.48;8.32;;;;;;;;;;5015142;28;20046;-59
2023/06/06 01:47:47;;;;;;;12.20;7.15;;;;;;;;;;5015374;28;20053;-59
2023/06/06 01:50:14;;;;;;;15.45;7.40;;;;;;;;;;5014849;28;20104;-60
2023/06/06 01:52:40;;;;;;;15.05;7.40;;;;;;;;;;5015226;28;20517;-59
2023/06/06 01:55:10;;;;;;;16.80;7.55;;;;;;;;;;5015127;28;20057;-59
2023/06/06 01:57:36;;;;;;;18.00;8.18;;;;;;;;;;4997331;28;20409;-59
2023/06/06 02:00:08;;;;;;;14.32;7.05;;;;;;;;;;5015144;28;20050;-59
2023/06/06 02:02:34;;;;;;;16.98;6.85;;;;;;;;;;4997360;28;20117;-59
2023/06/06 02:05:00;;;;;;;13.95;6.95;;;;;;;;;;5014795;28;20563;-59
2023/06/06 02:07:27;;;;;;;15.05;7.60;;;;;;;;;;5014737;28;20049;-59
2023/06/06 02:09:53;;;;;;;15.00;7.63;;;;;;;;;;5014907;28;20407;-58
2023/06/06 02:12:19;;;;;;;16.08;8.68;;;;;;;;;;5014627;28;20056;-58
2023/06/06 02:14:45;;;;;;;16.00;7.93;;;;;;;;;;4997070;28;20049;-59
2023/06/06 02:17:11;;;;;;;14.68;8.10;;;;;;;;;;4997237;28;20486;-58
2023/06/06 02:19:37;;;;;;;13.25;8.50;;;;;;;;;;4996859;28;20099;-59
2023/06/06 02:22:03;;;;;;;14.57;8.30;;;;;;;;;;5014548;28;20402;-60
2023/06/06 02:24:30;;;;;;;17.05;8.10;;;;;;;;;;5014439;28;20050;-59
2023/06/06 02:26:56;;;;;;;16.25;8.82;;;;;;;;;;4997288;28;20486;-59
2023/06/06 02:29:23;;;;;;;17.80;8.30;;;;;;;;;;5013984;28;20133;-59
2023/06/06 02:31:53;;;;;;;18.95;7.80;;;;;;;;;;4996937;28;20061;-59
2023/06/06 02:34:21;;;;;;;14.02;8.50;;;;;;;;;;5014310;28;20045;-60
2023/06/06 02:36:49;;;;;;;17.55;8.40;;;;;;;;;;5014452;28;20046;-59
2023/06/06 02:39:15;;;;;;;14.25;8.00;;;;;;;;;;5014028;28;20509;-59
2023/06/06 02:41:41;;;;;;;20.85;9.20;;;;;;;;;;5013067;28;20049;-59
2023/06/06 02:44:07;;;;;;;19.63;8.90;;;;;;;;;;5013750;28;20528;-60
2023/06/06 02:46:33;;;;;;;22.95;9.35;;;;;;;;;;5013863;28;20058;-60
2023/06/06 02:48:59;;;;;;;17.50;8.40;;;;;;;;;;5014299;28;20140;-59
2023/06/06 02:51:27;;;;;;;15.32;8.15;;;;;;;;;;4996273;28;20042;-59
2023/06/06 02:53:53;;;;;;;16.38;9.05;;;;;;;;;;5014307;28;20050;-59
2023/06/06 02:56:19;;;;;;;21.13;9.73;;;;;;;;;;5012508;28;20053;-60
2023/06/06 02:58:45;;;;;;;17.55;9.05;;;;;;;;;;5013459;28;20054;-59
2023/06/06 03:01:12;;;;;;;18.60;9.38;;;;;;;;;;5013811;28;20037;-59
2023/06/06 03:03:38;;;;;;;19.80;9.20;;;;;;;;;;5013810;28;20061;-59
2023/06/06 03:06:06;;;;;;;19.05;8.95;;;;;;;;;;5013790;28;20517;-61
2023/06/06 03:08:39;;;;;;;16.83;9.52;;;;;;;;;;4995888;28;20062;-59
2023/06/06 03:11:05;;;;;;;18.27;9.45;;;;;;;;;;4996496;28;20057;-59
2023/06/06 03:13:31;;;;;;;17.90;10.30;;;;;;;;;;4995433;28;20046;-59
2023/06/06 03:15:57;;;;;;;25.05;9.93;;;;;;;;;;4996466;28;20048;-59
2023/06/06 03:18:24;;;;;;;16.55;8.77;;;;;;;;;;4996107;28;20054;-59
2023/06/06 03:20:54;;;;;;;20.92;9.07;;;;;;;;;;5013590;28;20072;-60
2023/06/06 03:23:22;;;;;;;19.67;8.95;;;;;;;;;;4995526;28;20421;-59
2023/06/06 03:25:51;;;;;;;15.10;9.30;;;;;;;;;;4996047;28;20053;-59
2023/06/06 03:28:18;;;;;;;17.17;8.18;;;;;;;;;;5012772;28;20516;-59
2023/06/06 03:30:45;;;;;;;18.38;8.95;;;;;;;;;;4996191;28;20140;-59
2023/06/06 03:33:12;;;;;;;21.58;9.38;;;;;;;;;;4996048;28;20478;-60
2023/06/06 03:35:38;;;;;;;18.33;8.98;;;;;;;;;;4995972;28;20054;-58
2023/06/06 03:38:04;;;;;;;20.52;9.65;;;;;;;;;;5013200;28;20469;-59
2023/06/06 03:40:30;;;;;;;23.65;9.77;;;;;;;;;;4995401;28;20553;-59
2023/06/06 03:42:57;;;;;;;17.08;9.10;;;;;;;;;;5012695;28;20050;-59
2023/06/06 03:45:23;;;;;;;18.55;10.40;;;;;;;;;;5012965;28;20050;-59
2023/06/06 03:47:49;;;;;;;20.92;8.88;;;;;;;;;;5012906;28;20763;-59
2023/06/06 03:50:16;;;;;;;22.67;9.65;;;;;;;;;;5012483;28;20490;-59
2023/06/06 03:52:42;;;;;;;15.90;9.07;;;;;;;;;;4995430;28;20131;-59
2023/06/06 03:55:09;;;;;;;21.23;9.18;;;;;;;;;;4995519;28;20052;-59
2023/06/06 03:57:36;;;;;;;18.88;9.60;;;;;;;;;;5012271;28;20049;-60
2023/06/06 04:00:05;;;;;;;14.93;8.52;;;;;;;;;;4995243;28;20053;-59
2023/06/06 04:02:31;;;;;;;18.83;10.02;;;;;;;;;;5012570;28;20120;-59
2023/06/06 04:05:01;;;;;;;23.42;9.50;;;;;;;;;;5012111;28;20049;-59
2023/06/06 04:07:28;;;;;;;19.98;8.48;;;;;;;;;;4994279;28;20050;-59
2023/06/06 04:09:55;;;;;;;16.60;8.07;;;;;;;;;;5011833;28;20060;-59
2023/06/06 04:12:21;;;;;;;16.80;7.43;;;;;;;;;;5011511;28;20053;-59
2023/06/06 04:14:47;;;;;;;17.48;8.40;;;;;;;;;;4994438;28;20045;-60
2023/06/06 04:17:13;;;;;;;16.70;8.73;;;;;;;;;;5011565;28;20049;-62
2023/06/06 04:19:39;;;;;;;21.70;8.88;;;;;;;;;;5011840;28;20136;-59
2023/06/06 04:22:05;;;;;;;17.13;8.85;;;;;;;;;;4994271;28;20045;-59
2023/06/06 04:24:32;;;;;;;21.88;8.65;;;;;;;;;;5011311;28;20049;-59
2023/06/06 04:27:03;;;;;;;19.80;8.80;;;;;;;;;;5011584;28;20402;-60
2023/06/06 04:29:33;;;;;;;21.25;8.57;;;;;;;;;;5010391;28;20085;-58
2023/06/06 04:31:59;;;;;;;;;;;;;;;;;;5012063;28;20057;-60
2023/06/06 04:34:30;;;;;;;23.77;8.73;;;;;;;;;;5011293;28;19921;-60
2023/06/06 04:37:03;;;;;;;21.80;8.95;;;;;;;;;;4993910;28;20061;-60
2023/06/06 04:39:31;;;;;;;18.55;8.63;;;;;;;;;;5011582;28;20058;-60
2023/06/06 04:41:58;;;;;;;16.23;8.20;;;;;;;;;;5011287;28;20054;-60
2023/06/06 04:44:25;;;;;;;17.85;9.38;;;;;;;;;;4993675;28;20058;-60
2023/06/06 04:46:52;;;;;;;19.20;8.93;;;;;;;;;;5010275;28;20050;-61
2023/06/06 04:49:21;;;;;;;18.25;9.07;;;;;;;;;;5009937;28;20054;-60
2023/06/06 04:51:47;;;;;;;17.50;8.45;;;;;;;;;;5011566;28;20491;-59
2023/06/06 04:54:13;;;;;;;16.42;7.22;;;;;;;;;;5011075;28;20056;-63
2023/06/06 04:56:40;;;;;;;19.30;8.55;;;;;;;;;;4993937;28;20053;-60
2023/06/06 04:59:06;;;;;;;18.63;8.48;;;;;;;;;;5011347;28;20088;-59
2023/06/06 05:01:34;;;;;;;16.92;8.52;;;;;;;;;;5012134;28;20046;-59
2023/06/06 05:04:00;;;;;;;14.87;7.80;;;;;;;;;;4960952;28;1068044;-60
2023/06/06 05:06:27;;;;;;;14.02;8.20;;;;;;;;;;5016042;28;20324;-59
2023/06/06 05:08:54;;;;;;;13.48;8.13;;;;;;;;;;5015837;28;20042;-60
2023/06/06 05:11:20;;;;;;;18.58;8.68;;;;;;;;;;5015801;28;20049;-60
2023/06/06 05:13:46;;;;;;;19.52;7.70;;;;;;;;;;5014960;28;20122;-59
2023/06/06 05:16:13;;;;;;;14.70;7.70;;;;;;;;;;4998534;28;20046;-59
2023/06/06 05:18:39;;;;;;;18.58;7.82;;;;;;;;;;5015794;28;20075;-60
2023/06/06 05:21:06;;;;;;;20.00;7.18;;;;;;;;;;4998620;28;20054;-59
2023/06/06 05:23:32;;;;;;;13.63;7.88;;;;;;;;;;5014032;28;20050;-63
2023/06/06 05:25:58;;;;;;;15.80;8.25;;;;;;;;;;5015871;28;20064;-60
2023/06/06 05:28:25;;;;;;;19.42;8.52;;;;;;;;;;5015427;28;20056;-60
2023/06/06 05:30:56;;;;;;;15.82;8.15;;;;;;;;;;5015653;28;20044;-60
2023/06/06 05:33:22;;;;;;;16.80;8.52;;;;;;;;;;4997828;28;20100;-60
2023/06/06 05:35:48;;;;;;;20.15;7.93;;;;;;;;;;5014491;28;20045;-60
2023/06/06 05:38:18;;;;;;;18.45;7.53;;;;;;;;;;5015108;28;20407;-60
2023/06/06 05:40:44;;;;;;;16.27;8.33;;;;;;;;;;4998077;28;20053;-60
2023/06/06 05:43:10;;;;;;;19.55;8.68;;;;;;;;;;5015410;28;20046;-60
2023/06/06 05:45:36;;;;;;;13.30;6.95;;;;;;;;;;5015154;28;20052;-61
2023/06/06 05:48:03;;;;;;;14.60;7.75;;;;;;;;;;5015546;28;20049;-61
2023/06/06 05:50:29;;;;;;;20.33;7.93;;;;;;;;;;4997791;28;20092;-60
2023/06/06 05:52:55;;;;;;;18.23;7.35;;;;;;;;;;5014876;28;20045;-62
2023/06/06 05:55:28;;;;;;;16.20;7.32;;;;;;;;;;5015126;28;20045;-60
2023/06/06 05:57:55;;;;;;;15.68;6.35;;;;;;;;;;5013863;28;20046;-61
2023/06/06 06:00:24;;;;;;;15.95;6.78;;;;;;;;;;5014658;28;20050;-60
2023/06/06 06:02:55;;;;;;;16.23;6.82;;;;;;;;;;4997580;28;20456;-60
2023/06/06 06:05:22;;;;;;;21.08;7.90;;;;;;;;;;4997369;28;20141;-60
2023/06/06 06:07:48;;;;;;;15.32;7.13;;;;;;;;;;5014657;28;20087;-60
2023/06/06 06:10:14;;;;;;;20.15;6.68;;;;;;;;;;5014653;28;20116;-60
2023/06/06 06:12:43;;;;;;;17.65;7.32;;;;;;;;;;4996995;28;20075;-60
2023/06/06 06:15:10;;;;;;;14.82;6.72;;;;;;;;;;4997820;28;20049;-61
2023/06/06 06:17:36;;;;;;;12.52;5.97;;;;;;;;;;5014446;28;20429;-61
2023/06/06 06:20:08;;;;;;;12.55;6.93;;;;;;;;;;5013594;28;20050;-61
2023/06/06 06:22:37;;;;;;;14.65;6.47;;;;;;;;;;4993125;28;20069;-61
2023/06/06 06:25:03;;;;;;;14.60;6.00;;;;;;;;;;4994009;28;20139;-61
2023/06/06 06:27:30;;;;;;;12.60;5.97;;;;;;;;;;4996159;28;20062;-60
2023/06/06 06:29:56;;;;;;;13.88;6.38;;;;;;;;;;5014698;28;20141;-61
2023/06/06 06:32:23;;;;;;;12.98;6.20;;;;;;;;;;5014438;28;20050;-60
2023/06/06 06:34:49;;;;;;;14.38;6.90;;;;;;;;;;4997001;28;20045;-61
2023/06/06 06:37:18;;;;;;;14.80;6.32;;;;;;;;;;5013807;28;20088;-61
2023/06/06 06:39:45;;;;;;;12.77;5.82;;;;;;;;;;5014320;28;20054;-61
2023/06/06 06:42:11;;;;;;;11.68;6.00;;;;;;;;;;5014166;28;20561;-60
2023/06/06 06:44:38;;;;;;;11.48;6.38;;;;;;;;;;5014139;28;20548;-60
2023/06/06 06:47:04;;;;;;;12.02;5.65;;;;;;;;;;5014321;28;20058;-61
2023/06/06 06:49:30;;;;;;;12.60;5.47;;;;;;;;;;5013919;28;20049;-60
2023/06/06 06:51:57;;;;;;;12.40;5.10;;;;;;;;;;4996470;28;20049;-60
2023/06/06 06:54:26;;;;;;;16.00;6.10;;;;;;;;;;4996282;28;20410;-60
2023/06/06 06:56:53;;;;;;;12.07;5.43;;;;;;;;;;5014183;28;20056;-61
2023/06/06 06:59:20;;;;;;;11.15;5.40;;;;;;;;;;4996551;28;20058;-60
2023/06/06 07:01:49;;;;;;;14.73;5.43;;;;;;;;;;5014040;28;20445;-60
2023/06/06 07:04:18;;;;;;;10.50;4.95;;;;;;;;;;5013488;28;20058;-61
2023/06/06 07:06:47;;;;;;;11.23;5.55;;;;;;;;;;5013585;28;20552;-60
2023/06/06 07:09:14;;;;;;;9.50;4.90;;;;;;;;;;5013529;28;20121;-63
2023/06/06 07:11:40;;;;;;;13.85;5.90;;;;;;;;;;5013916;28;20080;-60
2023/06/06 07:14:06;;;;;;;11.82;5.50;;;;;;;;;;5013770;28;20128;-60
2023/06/06 07:16:33;;;;;;;14.48;5.60;;;;;;;;;;5013559;28;20176;-60
2023/06/06 07:18:59;;;;;;;12.23;5.43;;;;;;;;;;4996302;28;20383;-61
2023/06/06 07:21:25;;;;;;;11.07;5.65;;;;;;;;;;5013009;28;20053;-61
2023/06/06 07:23:52;;;;;;;13.43;5.32;;;;;;;;;;5012866;28;20042;-60
2023/06/06 07:26:21;;;;;;;12.10;5.40;;;;;;;;;;5013380;28;20052;-60
2023/06/06 07:28:48;;;;;;;14.50;5.18;;;;;;;;;;5013528;28;20049;-60
2023/06/06 07:31:14;;;;;;;16.92;5.65;;;;;;;;;;5013240;28;20140;-61
2023/06/06 07:33:40;;;;;;;7.97;4.40;;;;;;;;;;5013018;28;20052;-61
2023/06/06 07:36:07;;;;;;;15.25;4.95;;;;;;;;;;5013376;28;20046;-60
2023/06/06 07:38:33;;;;;;;12.32;5.60;;;;;;;;;;5013181;28;20076;-60
2023/06/06 07:40:59;;;;;;;8.50;4.63;;;;;;;;;;5013426;28;20049;-61
2023/06/06 07:43:25;;;;;;;12.35;5.35;;;;;;;;;;5012916;28;20133;-60
2023/06/06 07:45:51;;;;;;;7.78;4.70;;;;;;;;;;5013271;28;20049;-61
2023/06/06 07:48:17;;;;;;;11.15;5.47;;;;;;;;;;5012643;28;20128;-61
2023/06/06 07:50:43;;;;;;;11.95;5.15;;;;;;;;;;5012950;28;20057;-61
2023/06/06 07:53:10;;;;;;;10.82;6.20;;;;;;;;;;5013126;28;20064;-61
2023/06/06 07:55:37;;;;;;;17.35;6.03;;;;;;;;;;4995484;28;20088;-61
2023/06/06 07:58:05;;;;;;;10.57;5.20;;;;;;;;;;5013071;28;20081;-61
2023/06/06 08:00:31;;;;;;;10.77;4.93;;;;;;;;;;5012658;28;20041;-61
2023/06/06 08:02:57;;;;;;;9.55;4.63;;;;;;;;;;5012290;28;20418;-61
2023/06/06 08:05:23;;;;;;;9.32;5.18;;;;;;;;;;5012435;28;20626;-61
2023/06/06 08:07:49;;;;;;;8.68;4.78;;;;;;;;;;5012943;28;20050;-61
2023/06/06 08:10:15;;;;;;;10.15;4.28;;;;;;;;;;5012603;28;20046;-62
2023/06/06 08:12:41;;;;;;;9.35;4.07;;;;;;;;;;5012805;28;20053;-61
2023/06/06 08:15:09;;;;;;;10.32;4.40;;;;;;;;;;5012723;28;20117;-61
2023/06/06 08:17:35;;;;;;;12.63;4.10;;;;;;;;;;5011925;28;20049;-61
2023/06/06 08:20:01;;;;;;;10.93;3.65;;;17.90;99.90;;;;;;5012561;28;20139;-61
2023/06/06 08:22:27;;;;;;;9.75;4.15;;;;;;;;;;5012337;28;20498;-61
2023/06/06 08:24:53;;;;;;;9.05;3.40;;;17.80;99.90;;;;;;4995340;28;20054;-61
2023/06/06 08:27:19;;;;;;;8.45;4.00;;;;;;;;;;5012228;28;20426;-61
2023/06/06 08:29:45;;;;;;;5.60;3.30;;;;;;;;;;4995203;28;20504;-61
2023/06/06 08:32:12;;;;;;;10.73;3.45;;;;;;;;;;5012137;28;20042;-61
2023/06/06 08:34:38;;;;;;;8.27;3.88;;;;;;;;;;5012038;28;20057;-61
2023/06/06 08:37:04;;;;;;;7.82;3.60;;;18.40;99.90;;;;;;5012510;28;20096;-61
2023/06/06 08:39:30;;;;;;;8.23;3.50;;;;;;;;;;5012082;28;20053;-61
2023/06/06 08:41:57;;;;;;;11.15;3.97;;;;;;;;;;5012416;28;20042;-61
2023/06/06 08:44:24;;;;;;;9.50;4.28;;;;;;;;;;5012005;28;20046;-61
2023/06/06 08:46:51;;;;;;;9.40;3.92;;;17.60;99.90;;;;;;5011955;28;20141;-61
2023/06/06 08:49:21;;;;;;;8.25;3.92;;;;;;;;;;4994832;28;20045;-61
2023/06/06 08:51:51;;;;;;;7.17;3.33;;;17.80;99.90;;;;;;4994840;28;20046;-61
2023/06/06 08:54:20;;;;;;;10.48;4.70;;;;;;;;;;4994872;28;20297;-61
2023/06/06 08:56:46;;;;;;;11.52;3.97;;;;;;;;;;5012276;28;20093;-61
2023/06/06 08:59:14;;;;;;;10.77;4.18;;;;;;;;;;5012123;28;20050;-61
2023/06/06 09:01:40;;;;;;;7.28;3.42;;;18.30;99.90;;;;;;5010578;28;20050;-61
2023/06/06 09:04:07;;;;;;;12.25;4.25;;;18.70;99.90;;;;;;5011858;28;20387;-62
2023/06/06 09:06:40;;;;;;;12.35;4.30;;;18.50;99.90;;;;;;5012049;28;20145;-61
2023/06/06 09:09:09;;;;;;;8.27;4.03;;;18.90;99.90;;;;;;5012208;28;20046;-61
2023/06/06 09:11:38;;;;;;;9.77;4.53;;;18.80;99.90;;;;;;5011873;28;20046;-61
2023/06/06 09:14:07;;;;;;;9.07;3.42;;;19.20;99.90;;;;;;4994628;28;20053;-62
2023/06/06 09:16:33;;;;;;;7.95;3.90;;;;;;;;;;5011821;28;20128;-62
2023/06/06 09:19:01;;;;;;;8.82;3.88;;;;;;;;;;5012116;28;20062;-62
2023/06/06 09:21:32;;;;;;;6.95;4.00;;;18.80;99.90;;;;;;5011739;28;20050;-61
2023/06/06 09:23:58;;;;;;;10.60;4.38;;;;;;;;;;5011888;28;20038;-62
2023/06/06 09:26:25;;;;;;;9.55;4.10;;;;;;;;;;5011698;28;20140;-62
2023/06/06 09:28:51;;;;;;;12.60;5.05;;;;;;;;;;5012148;28;20161;-61
2023/06/06 09:31:22;;;;;;;8.45;4.15;;;19.20;99.90;;;;;;4993846;28;20496;-61
2023/06/06 09:33:48;;;;;;;8.43;3.95;;;;;;;;;;5012072;28;20490;-61
2023/06/06 09:36:14;;;;;;;9.65;4.25;;;;;;;;;;5011633;28;20052;-62
2023/06/06 09:38:40;;;;;;;10.15;4.28;;;19.20;99.90;;;;;;5011772;28;20057;-61
2023/06/06 09:41:07;;;;;;;10.80;5.00;;;19.20;99.90;;;;;;4994247;28;20533;-61
2023/06/06 09:43:35;;;;;;;11.82;5.43;;;;;;;;;;4994252;28;20104;-61
2023/06/06 09:46:04;;;;;;;10.68;4.05;;;19.30;99.90;;;;;;5011493;28;20052;-61
2023/06/06 09:48:30;;;;;;;9.77;4.82;;;;;;;;;;5014942;28;20096;-61
2023/06/06 09:50:57;;;;;;;9.68;5.15;;;19.30;99.90;;;;;;5015330;28;20046;-61
2023/06/06 09:53:27;;;;;;;10.65;5.65;;;19.70;99.90;;;;;;5014981;28;20089;-61
2023/06/06 09:55:55;;;;;;;11.77;5.28;;;;;;;;;;5015082;28;20045;-61
2023/06/06 09:58:22;;;;;;;17.77;5.43;;;;;;;;;;5015096;28;20050;-61
2023/06/06 10:00:48;;;;;;;10.77;4.85;;;19.30;99.90;;;;;;5013657;28;20053;-61
2023/06/06 10:03:20;;;;;;;17.38;5.18;;;19.80;99.90;;;;;;5014748;28;20107;-62
2023/06/06 10:05:50;;;;;;;12.82;5.82;;;20.00;99.90;;;;;;5014975;28;20132;-62
2023/06/06 10:08:21;;;;;;;12.55;5.40;;;20.60;99.90;;;;;;5014608;28;20092;-62
2023/06/06 10:10:49;;;;;;;14.18;5.88;;;20.60;99.90;;;;;;5015047;28;20073;-61
2023/06/06 10:13:18;;;;;;;10.80;4.43;;;20.40;99.90;;;;;;4996892;28;20042;-61
2023/06/06 10:15:45;;;;;;;12.02;5.38;;;;;;;;;;4997564;28;20387;-61
2023/06/06 10:18:12;;;;;;;10.82;5.93;;;;;;;;;;4997424;28;20053;-61
2023/06/06 10:20:39;;;;;;;11.05;4.97;;;;;;;;;;5014699;28;20100;-61
2023/06/06 10:23:05;;;;;;;9.90;5.63;;;;;;;;;;4997394;28;20092;-62
2023/06/06 10:25:31;;;;;;;8.18;4.90;;;;;;;;;;5013096;28;20046;-61
2023/06/06 10:28:42;;;;;;;11.07;4.97;;;19.90;99.90;;;;;;4996852;28;20050;-61
2023/06/06 10:31:12;;;;;;;10.30;4.07;;;;;;;;;;4953888;29;20059;-62
2023/06/06 10:33:44;;;;;;;8.52;4.90;;;19.70;99.90;;;;;;4953956;29;20546;-61
2023/06/06 10:36:17;;;;;;;11.93;4.75;;;19.60;99.90;;;;;;4953967;29;20055;-61
2023/06/06 10:39:20;;;;;;;10.02;5.57;;;19.80;99.90;;;;;;4922240;29;20059;-61
2023/06/06 10:42:09;;;;;;;10.57;5.43;;;;;;;;;;4953725;29;20050;-61
2023/06/06 10:44:52;;;;;;;10.18;5.72;;;20.00;99.90;;;;;;4945976;29;20504;-61
2023/06/06 10:47:20;;;;;;;14.55;4.38;;;20.30;99.90;;;;;;4953404;29;20071;-61
2023/06/06 10:50:05;;;;;;;10.23;5.07;;;20.10;99.90;;;;;;4953637;29;20474;-62
2023/06/06 10:52:30;;;;;;;10.00;5.32;;;;;;;;;;4953261;29;20134;-61
2023/06/06 10:54:59;;;;;;;10.15;5.28;;;;;;;;;;4937774;29;20247;-62
2023/06/06 10:57:25;;;;;;;10.82;5.35;;;19.80;99.90;;;;;;4936844;28;20512;-61
2023/06/06 10:59:51;;;;;;;7.63;4.65;;;;;;;;;;4952590;29;20047;-62
2023/06/06 11:02:35;;;;;;;9.85;4.80;;;;;;;;;;4953167;29;20051;-62
2023/06/06 11:05:03;;;;;;;11.35;4.80;;;;;;;;;;4982237;28;20132;-61
2023/06/06 11:07:28;;;;;;;9.35;5.30;;;19.60;99.90;;;;;;5013557;28;20410;-61
2023/06/06 11:09:55;;;;;;;9.18;4.57;;;;;;;;;;4996609;28;20041;-62
2023/06/06 11:12:21;;;;;;;11.43;4.65;;;;;;;;;;5013248;28;20049;-61
2023/06/06 11:15:04;;;;;;;9.55;5.35;;;20.00;99.90;;;;;;5013716;28;20406;-62
2023/06/06 11:17:52;;;;;;;10.55;4.75;;;;;;;;;;5013734;28;20053;-62
2023/06/06 11:20:26;;;;;;;10.82;4.30;;;20.30;99.90;;;;;;5013580;28;20053;-61
2023/06/06 11:23:03;;;;;;;7.70;4.43;;;;;;;;;;4996243;28;20141;-62
2023/06/06 11:25:38;;;;;;;8.85;4.60;;;;;;;;;;5013304;28;20045;-61
2023/06/06 11:28:08;;;;;;;11.80;5.00;;;;;;;;;;5013623;28;20042;-63
2023/06/06 11:30:36;;;;;;;8.52;4.68;;;20.00;99.90;;;;;;5013333;28;20060;-62
2023/06/06 11:33:02;;;;;;;10.15;5.18;;;;;;;;;;5013386;28;20041;-62
2023/06/06 11:35:29;;;;;;;11.07;5.15;;;;;;;;;;5011990;28;20045;-62
2023/06/06 11:37:55;;;;;;;12.38;4.57;;;;;;;;;;4995542;28;20064;-62
2023/06/06 11:40:21;;;;;;;9.93;5.50;;;;;;;;;;5012653;28;20056;-62
2023/06/06 11:42:47;;;;;;;12.43;5.40;;;;;;;;;;5013298;28;20049;-62
2023/06/06 11:45:16;;;;;;;8.98;5.35;;;;;;;;;;5012988;28;20585;-64
2023/06/06 11:47:43;;;;;;;11.13;5.45;;;;;;;;;;5013244;28;20049;-62
2023/06/06 11:50:09;;;;;;;13.27;5.88;;;;;;;;;;5013135;28;20129;-61
2023/06/06 11:52:48;;;;;;;12.82;6.53;;;;;;;;;;5012748;28;20050;-62
2023/06/06 11:55:15;;;;;;;11.80;5.63;;;;;;;;;;5012588;28;20458;-66
2023/06/06 11:57:41;;;;;;;11.80;5.38;;;;;;;;;;4995756;28;20085;-62
2023/06/06 12:00:14;;;;;;;12.20;6.03;;;;;;;;;;5012985;28;20148;-62
2023/06/06 12:02:40;;;;;;;10.32;5.95;;;;;;;;;;5012628;28;20100;-62
2023/06/06 12:05:17;;;;;;;12.40;6.57;;;;;;;;;;5012845;28;20060;-62
2023/06/06 12:07:43;;;;;;;13.82;6.53;;;;;;;;;;5011791;28;20489;-62
2023/06/06 12:10:09;;;;;;;12.13;6.40;;;;;;;;;;5012406;28;20085;-62
2023/06/06 12:12:45;;;;;;;12.43;6.72;;;;;;;;;;5011392;28;20049;-62
2023/06/06 12:15:11;;;;;;;14.85;5.78;;;;;;;;;;5012569;28;20085;-62
2023/06/06 12:17:37;;;;;;;15.35;6.38;;;;;;;;;;5012566;28;20076;-62
2023/06/06 12:20:04;;;;;;;13.32;6.35;;;;;;;;;;5012816;28;20053;-62
2023/06/06 12:22:35;;;;;;;11.88;5.28;;;;;;;;;;5011296;28;20061;-62
2023/06/06 12:25:02;;;;;;;11.88;5.82;;;;;;;;;;4994752;28;20058;-62
2023/06/06 12:27:33;;;;;;;10.32;4.88;;;;;;;;;;5012328;28;20060;-62
2023/06/06 12:30:00;;;;;;;10.25;4.95;;;;;;;;;;5012403;28;20762;-61
2023/06/06 12:32:29;;;;;;;11.93;5.15;;;;;;;;;;5010872;28;20375;-62
2023/06/06 12:35:01;;;;;;;9.80;5.22;;;;;;;;;;5012421;28;20072;-62
2023/06/06 12:37:40;;;;;;;8.48;5.45;;;;;;;;;;5012187;28;20065;-61
2023/06/06 12:40:20;;;;;;;11.88;5.65;;;;;;;;;;5012088;28;20081;-62
2023/06/06 12:43:06;;;;;;;11.27;4.95;;;20.40;99.90;;;;;;5012402;28;20434;-62
2023/06/06 12:45:36;;;;;;;10.32;5.82;;;20.60;99.90;;;;;;5012314;28;20115;-62
2023/06/06 12:48:02;;;;;;;9.70;4.50;;;;;;;;;;5010988;28;20050;-62
2023/06/06 12:50:28;;;;;;;10.75;5.07;;;;;;;;;;5011951;28;20133;-62
2023/06/06 12:52:55;;;;;;;10.18;4.97;;;;;;;;;;5011844;28;20111;-63
2023/06/06 12:55:21;;;;;;;8.57;5.35;;;;;;;;;;5012220;28;20092;-63
2023/06/06 12:57:47;;;;;;;11.13;4.97;;;;;;;;;;5011247;28;20192;-63
2023/06/06 13:00:15;;;;;;;11.48;5.63;;;;;;;;;;5012026;28;20054;-63
2023/06/06 13:02:44;;;;;;;10.52;6.10;;;;;;;;;;5010665;28;20121;-62
2023/06/06 13:05:11;;;;;;;13.65;6.22;;;;;;;;;;5012365;28;20061;-62
2023/06/06 13:07:37;;;;;;;9.85;6.63;;;;;;;;;;5011565;28;20103;-62
2023/06/06 13:10:07;;;;;;;12.90;5.68;;;;;;;;;;5012232;28;20041;-62
2023/06/06 13:12:41;;;;;;;10.10;5.63;;;;;;;;;;5010753;28;20509;-62
2023/06/06 13:15:10;;;;;;;12.23;5.28;;;;;;;;;;5012082;28;20429;-62
2023/06/06 13:17:36;;;;;;;10.87;5.27;;;;;;;;;;5011778;28;20490;-62
2023/06/06 13:20:06;;;;;;;14.02;6.28;;;;;;;;;;4994515;28;20061;-62
2023/06/06 13:22:32;;;;;;;8.80;5.30;;;;;;;;;;5013626;28;20053;-62
2023/06/06 13:24:58;;;;;;;11.25;5.72;;;;;;;;;;5015872;28;20410;-63
2023/06/06 13:27:24;;;;;;;12.85;5.70;;;;;;;;;;5015631;28;20052;-62
2023/06/06 13:29:50;;;;;;;13.82;6.00;;;;;;;;;;5015572;28;20053;-63
2023/06/06 13:32:16;;;;;;;11.18;4.65;;;;;;;;;;5015353;28;20099;-63
2023/06/06 13:34:42;;;;;;;10.93;5.43;;;;;;;;;;5015483;28;20108;-63
2023/06/06 13:37:08;;;;;;;8.63;4.50;;;;;;;;;;5015302;28;20136;-62
2023/06/06 13:39:34;;;;;;;8.68;5.32;;;;;;;;;;5015391;28;20085;-62
2023/06/06 13:42:00;;;;;;;9.68;5.43;;;;;;;;;;5015495;28;20119;-63
2023/06/06 13:44:26;;;;;;;11.30;5.38;;;;;;;;;;5015302;28;20046;-63
2023/06/06 13:46:52;;;;;;;10.45;5.50;;;20.40;99.90;;;;;;5015335;28;20061;-63
2023/06/06 13:49:18;;;;;;;11.93;5.22;;;;;;;;;;4998013;28;20050;-63
2023/06/06 13:51:44;;;;;;;11.30;4.95;;;;;;;;;;5014847;28;20592;-62
2023/06/06 13:54:11;;;;;;;8.10;4.18;;;;;;;;;;5015375;28;20092;-63
2023/06/06 13:56:39;;;;;;;12.77;4.40;;;21.40;99.90;;;;;;5013745;28;20046;-63
2023/06/06 13:59:05;;;;;;;9.07;4.20;;;;;;;;;;5014212;28;20108;-63
2023/06/06 14:01:31;;;;;;;8.88;4.28;;;;;;;;;;5014755;28;20061;-63
2023/06/06 14:03:58;;;;;;;8.95;5.13;;;;;;;;;;5015098;28;20153;-62
2023/06/06 14:06:24;;;;;;;10.40;5.32;;;;;;;;;;5014542;28;20057;-63
2023/06/06 14:08:50;;;;;;;8.90;4.38;;;;;;;;;;5015019;28;20061;-63
2023/06/06 14:11:16;;;;;;;11.20;4.32;;;;;;;;;;5013501;28;20042;-64
2023/06/06 14:13:44;;;;;;;8.25;4.45;;;;;;;;;;5014918;28;20042;-63
2023/06/06 14:16:11;;;;;;;13.65;4.57;;;;;;;;;;5014869;28;20053;-64
2023/06/06 14:18:43;;;;;;;10.45;4.75;;;;;;;;;;5014732;28;20050;-63
2023/06/06 14:23:44;;;;;;;13.57;4.53;;;;;;;;;;5014482;28;20064;-63
2023/06/06 14:26:11;;;;;;;9.55;4.35;;;;;;;;;;5014659;28;20056;-63